Time;durP1;ratioP1;P1;durP2;ratioP2;P2;SDS_P1;SDS_P2;PMS_P1;PMS_P2;Temp;Humidity;BMP_temperature;BMP_pressure;BME280_temperature;BME280_humidity;BME280_pressure;Samples;Min_cycle;Max_cycle;Signal;HPM_P1;HPM_P2
2023/05/30 00:02:19;;;;;;;3.95;2.92;;;22.00;57.80;;;;;;5045429;28;20030;-55
2023/05/30 00:04:45;;;;;;;3.92;2.83;;;21.90;57.70;;;;;;5043744;28;20103;-55
2023/05/30 00:07:10;;;;;;;4.63;2.80;;;21.90;57.80;;;;;;5044596;28;20021;-54
2023/05/30 00:09:36;;;;;;;3.97;2.80;;;21.80;57.70;;;;;;5044060;28;20116;-55
2023/05/30 00:12:02;;;;;;;3.97;2.72;;;21.80;57.70;;;;;;5044115;28;20040;-55
2023/05/30 00:14:28;;;;;;;4.00;2.75;;;21.80;57.80;;;;;;5043716;28;20049;-55
2023/05/30 00:16:53;;;;;;;3.88;2.78;;;21.70;57.80;;;;;;5044167;28;20021;-54
2023/05/30 00:19:19;;;;;;;3.90;2.63;;;21.70;57.70;;;;;;5027781;28;20041;-55
2023/05/30 00:21:45;;;;;;;4.32;2.70;;;21.70;57.60;;;;;;5027437;28;20026;-55
2023/05/30 00:24:11;;;;;;;3.83;2.78;;;21.70;57.70;;;;;;5043785;28;20045;-55
2023/05/30 00:26:37;;;;;;;3.97;2.78;;;21.70;57.70;;;;;;5044041;28;20029;-55
2023/05/30 00:29:03;;;;;;;2.72;2.40;;;21.60;57.70;;;;;;5043997;28;20038;-55
2023/05/30 00:31:30;;;;;;;2.72;2.53;;;21.60;57.70;;;;;;5043972;28;20029;-55
2023/05/30 00:33:55;;;;;;;4.03;2.83;;;21.60;57.80;;;;;;5045046;28;20045;-55
2023/05/30 00:36:21;;;;;;;4.45;3.20;;;21.50;57.80;;;;;;5045189;28;20446;-55
2023/05/30 00:38:47;;;;;;;4.53;3.38;;;21.50;57.90;;;;;;5043784;28;20136;-55
2023/05/30 00:41:12;;;;;;;7.13;2.80;;;21.40;57.90;;;;;;5045122;28;20036;-55
2023/05/30 00:43:38;;;;;;;3.13;2.30;;;21.40;58.00;;;;;;5043618;28;20486;-55
2023/05/30 00:46:04;;;;;;;3.78;2.88;;;21.40;58.00;;;;;;5045368;28;20423;-55
2023/05/30 00:48:29;;;;;;;7.60;2.70;;;21.40;58.00;;;;;;5045236;28;20102;-55
2023/05/30 00:50:55;;;;;;;8.00;2.70;;;21.30;57.90;;;;;;5043746;28;20089;-55
2023/05/30 00:53:21;;;;;;;3.28;2.40;;;21.30;58.00;;;;;;5043516;28;20041;-55
2023/05/30 00:55:46;;;;;;;3.28;2.63;;;21.30;58.10;;;;;;5043685;28;20026;-55
2023/05/30 00:58:12;;;;;;;3.90;2.97;;;21.20;58.10;;;;;;5044184;28;20040;-55
2023/05/30 01:00:38;;;;;;;3.53;2.50;;;21.20;58.10;;;;;;5044469;28;20025;-55
2023/05/30 01:03:04;;;;;;;3.40;2.55;;;21.20;58.20;;;;;;5043641;28;20077;-55
2023/05/30 01:05:30;;;;;;;4.43;2.65;;;21.10;58.20;;;;;;5027142;28;20025;-55
2023/05/30 01:07:56;;;;;;;7.30;2.90;;;21.10;58.30;;;;;;5043520;28;20029;-55
2023/05/30 01:10:21;;;;;;;3.55;2.72;;;21.10;58.30;;;;;;5043022;28;20156;-55
2023/05/30 01:13:11;;;;;;;2.53;2.33;;;21.10;58.40;;;;;;5045449;28;20079;-55
2023/05/30 01:15:40;;;;;;;4.78;3.13;;;21.10;58.40;;;;;;5045260;28;20076;-53
2023/05/30 01:18:32;;;;;;;3.40;2.50;;;21.00;58.40;;;;;;5044596;28;20029;-55
2023/05/30 01:21:01;;;;;;;4.22;2.42;;;21.00;58.40;;;;;;5040961;28;20029;-55
2023/05/30 01:24:06;;;;;;;4.10;2.60;;;21.00;58.50;;;;;;5027626;28;20033;-55
2023/05/30 01:26:53;;;;;;;3.53;2.78;;;20.90;58.60;;;;;;5043762;28;20097;-55
2023/05/30 01:29:20;;;;;;;4.07;2.63;;;20.90;58.70;;;;;;5044658;28;20029;-55
2023/05/30 01:31:46;;;;;;;4.47;2.70;;;20.90;58.70;;;;;;5043239;28;20119;-55
2023/05/30 01:34:12;;;;;;;4.05;3.15;;;20.90;58.70;;;;;;5044557;28;20049;-55
2023/05/30 01:36:38;;;;;;;4.15;2.88;;;20.80;58.60;;;;;;5043318;28;20029;-55
2023/05/30 01:39:03;;;;;;;3.38;2.97;;;20.80;58.70;;;;;;5044525;28;20056;-55
2023/05/30 01:41:36;;;;;;;3.38;3.00;;;20.80;58.70;;;;;;5043234;28;20033;-54
2023/05/30 01:44:10;;;;;;;3.97;3.03;;;20.80;58.80;;;;;;5043059;28;20566;-55
2023/05/30 01:46:42;;;;;;;4.85;2.90;;;20.80;58.90;;;;;;5026708;28;20034;-55
2023/05/30 01:49:26;;;;;;;5.30;2.92;;;20.70;58.90;;;;;;5043028;28;20037;-55
2023/05/30 01:51:55;;;;;;;4.88;3.00;;;20.70;59.10;;;;;;5038165;28;20030;-55
2023/05/30 01:54:21;;;;;;;4.00;3.40;;;20.70;59.00;;;;;;5039156;28;20033;-55
2023/05/30 01:56:48;;;;;;;4.97;3.08;;;20.70;59.10;;;;;;5039819;28;20048;-55
2023/05/30 01:59:14;;;;;;;4.38;3.50;;;20.70;59.20;;;;;;5039484;28;20030;-55
2023/05/30 02:01:40;;;;;;;3.95;3.20;;;20.60;59.30;;;;;;5028807;28;20022;-55
2023/05/30 02:04:06;;;;;;;5.35;3.17;;;20.60;59.50;;;;;;5021377;28;20091;-55
2023/05/30 02:06:31;;;;;;;3.25;2.95;;;20.60;59.60;;;;;;5039174;28;20057;-55
2023/05/30 02:08:57;;;;;;;4.75;3.97;;;20.50;59.60;;;;;;5022635;28;20065;-55
2023/05/30 02:11:22;;;;;;;6.03;3.40;;;20.50;59.70;;;;;;5006111;28;20028;-55
2023/05/30 02:13:48;;;;;;;7.00;3.35;;;20.50;59.80;;;;;;5022701;28;20075;-55
2023/05/30 02:16:13;;;;;;;5.72;3.30;;;20.40;59.80;;;;;;5022893;28;20026;-55
2023/05/30 02:18:41;;;;;;;6.00;3.17;;;20.40;59.80;;;;;;5035231;28;20030;-55
2023/05/30 02:21:07;;;;;;;7.20;3.45;;;20.40;59.90;;;;;;5027759;28;20041;-55
2023/05/30 02:23:33;;;;;;;5.45;3.53;;;20.40;59.90;;;;;;5027943;28;20038;-55
2023/05/30 02:25:59;;;;;;;3.70;3.25;;;20.40;60.00;;;;;;5027034;28;20022;-55
2023/05/30 02:28:25;;;;;;;4.30;3.45;;;20.40;60.00;;;;;;5028065;28;20367;-55
2023/05/30 02:30:50;;;;;;;5.40;3.08;;;20.40;60.10;;;;;;5027845;28;20025;-54
2023/05/30 02:33:16;;;;;;;4.75;3.47;;;20.40;60.10;;;;;;5026461;28;20041;-55
2023/05/30 02:35:41;;;;;;;4.60;3.55;;;20.30;60.10;;;;;;5009651;28;20207;-55
2023/05/30 02:38:07;;;;;;;5.30;3.70;;;20.30;60.20;;;;;;5028009;28;20054;-55
2023/05/30 02:40:32;;;;;;;8.13;3.63;;;20.30;60.30;;;;;;5027549;28;20021;-55
2023/05/30 02:42:58;;;;;;;4.53;3.15;;;20.20;60.30;;;;;;5026290;28;20044;-55
2023/05/30 02:45:23;;;;;;;3.65;3.13;;;20.30;60.40;;;;;;5031248;28;20033;-55
2023/05/30 02:47:49;;;;;;;5.15;3.65;;;20.20;60.50;;;;;;5046005;28;20025;-55
2023/05/30 02:50:15;;;;;;;3.95;3.08;;;20.20;60.70;;;;;;5045838;28;20124;-55
2023/05/30 02:52:40;;;;;;;6.05;3.05;;;20.20;60.70;;;;;;5046029;28;20025;-55
2023/05/30 02:55:06;;;;;;;3.60;3.30;;;20.10;60.80;;;;;;5029050;28;20101;-55
2023/05/30 02:57:32;;;;;;;6.00;3.50;;;20.10;60.80;;;;;;5047112;28;20438;-55
2023/05/30 02:59:58;;;;;;;4.35;3.30;;;20.10;60.90;;;;;;5047305;28;20386;-55
2023/05/30 03:02:23;;;;;;;5.10;3.92;;;20.10;60.90;;;;;;5029319;28;20017;-55
2023/05/30 03:04:49;;;;;;;5.00;3.53;;;20.10;61.10;;;;;;5046796;28;20052;-55
2023/05/30 03:07:18;;;;;;;4.22;3.35;;;20.10;61.10;;;;;;5046854;28;20033;-55
2023/05/30 03:09:44;;;;;;;6.18;3.90;;;20.00;61.20;;;;;;5047036;28;20029;-55
2023/05/30 03:12:09;;;;;;;4.03;3.40;;;20.00;61.30;;;;;;5045667;28;20025;-55
2023/05/30 03:14:35;;;;;;;4.90;3.75;;;20.00;61.40;;;;;;5045125;28;20473;-55
2023/05/30 03:17:02;;;;;;;6.18;3.72;;;19.90;61.40;;;;;;5045378;28;20018;-55
2023/05/30 03:19:28;;;;;;;10.68;3.92;;;19.90;61.40;;;;;;5044852;28;20046;-55
2023/05/30 03:21:54;;;;;;;4.78;3.63;;;19.90;61.40;;;;;;5046726;28;20033;-55
2023/05/30 03:24:20;;;;;;;7.93;4.10;;;19.90;61.40;;;;;;5046128;28;20059;-55
2023/05/30 03:26:45;;;;;;;4.82;3.63;;;19.90;61.50;;;;;;5045689;28;20033;-54
2023/05/30 03:29:11;;;;;;;8.27;3.90;;;19.80;61.50;;;;;;5046339;28;20439;-55
2023/05/30 03:31:36;;;;;;;6.72;3.78;;;19.80;61.60;;;;;;5028418;28;20120;-55
2023/05/30 03:34:02;;;;;;;9.15;4.07;;;19.80;61.70;;;;;;5044736;28;20057;-55
2023/05/30 03:36:27;;;;;;;7.60;4.32;;;19.80;61.80;;;;;;5027838;28;20085;-55
2023/05/30 03:38:53;;;;;;;11.40;5.30;;;19.80;61.80;;;;;;5044769;28;20034;-55
2023/05/30 03:41:19;;;;;;;10.07;5.57;;;19.80;62.10;;;;;;5044639;28;20097;-55
2023/05/30 03:43:45;;;;;;;53.55;10.27;;;19.70;62.10;;;;;;5044575;28;20045;-55
2023/05/30 03:46:10;;;;;;;26.50;8.35;;;19.70;62.30;;;;;;5044704;28;20039;-55
2023/05/30 03:48:36;;;;;;;17.73;6.05;;;19.70;62.40;;;;;;5044630;28;20112;-55
2023/05/30 03:51:01;;;;;;;20.98;6.57;;;19.70;62.30;;;;;;5046103;28;20195;-55
2023/05/30 03:53:27;;;;;;;22.35;6.78;;;19.60;62.40;;;;;;5046105;28;20072;-55
2023/05/30 03:55:52;;;;;;;16.67;5.50;;;19.70;62.50;;;;;;5039374;28;20025;-55
2023/05/30 03:58:18;;;;;;;23.83;6.30;;;19.60;62.60;;;;;;5024117;28;20052;-55
2023/05/30 04:00:44;;;;;;;18.58;6.32;;;19.60;62.70;;;;;;5024646;28;20037;-55
2023/05/30 04:03:09;;;;;;;26.67;7.88;;;19.60;62.80;;;;;;5040930;28;20026;-55
2023/05/30 04:05:35;;;;;;;27.10;6.72;;;19.60;62.90;;;;;;5041843;28;20056;-55
2023/05/30 04:08:01;;;;;;;15.70;5.75;;;19.60;62.90;;;;;;5045854;28;20025;-55
2023/05/30 04:10:26;;;;;;;16.23;5.13;;;19.60;63.30;;;;;;5045139;28;20092;-55
2023/05/30 04:12:52;;;;;;;13.68;5.43;;;19.50;63.30;;;;;;5046333;28;20023;-54
2023/05/30 04:15:17;;;;;;;16.77;5.28;;;19.50;63.50;;;;;;5045423;28;20486;-55
2023/05/30 04:17:43;;;;;;;18.08;5.82;;;19.50;63.50;;;;;;5044074;28;20058;-55
2023/05/30 04:20:09;;;;;;;20.25;5.90;;;19.50;63.50;;;;;;5045664;28;20053;-55
2023/05/30 04:22:34;;;;;;;12.73;4.88;;;19.50;63.50;;;;;;5046393;28;20048;-55
2023/05/30 04:25:00;;;;;;;14.63;4.57;;;19.50;63.60;;;;;;5045946;28;20033;-55
2023/05/30 04:27:26;;;;;;;13.52;5.47;;;19.50;63.60;;;;;;5045771;28;20036;-55
2023/05/30 04:29:53;;;;;;;12.30;4.95;;;19.40;63.60;;;;;;5045352;28;20041;-55
2023/05/30 04:32:19;;;;;;;12.90;5.05;;;19.40;63.60;;;;;;5044104;28;20422;-55
2023/05/30 04:34:45;;;;;;;17.10;4.45;;;19.40;63.70;;;;;;5043714;28;20048;-55
2023/05/30 04:37:11;;;;;;;12.70;4.88;;;19.50;63.80;;;;;;5043549;28;20059;-55
2023/05/30 04:39:37;;;;;;;16.20;5.45;;;19.40;63.80;;;;;;5042800;28;20056;-55
2023/05/30 04:42:04;;;;;;;14.77;5.40;;;19.40;63.80;;;;;;5042573;28;20030;-55
2023/05/30 04:44:32;;;;;;;19.33;5.00;;;19.40;63.80;;;;;;5027097;28;20474;-55
2023/05/30 04:46:58;;;;;;;18.27;4.35;;;19.50;64.00;;;;;;5043871;28;20059;-55
2023/05/30 04:49:23;;;;;;;12.13;4.03;;;19.40;64.30;;;;;;5043511;28;20115;-55
2023/05/30 04:51:50;;;;;;;11.07;4.05;;;19.50;64.60;;;;;;5045094;28;20029;-55
2023/05/30 04:54:15;;;;;;;10.27;4.10;;;19.50;64.60;;;;;;5043556;28;20068;-55
2023/05/30 04:56:41;;;;;;;13.52;4.45;;;19.40;64.50;;;;;;5044901;28;20085;-55
2023/05/30 04:59:07;;;;;;;8.00;3.92;;;19.40;64.80;;;;;;5043657;28;20033;-55
2023/05/30 05:01:35;;;;;;;7.10;4.10;;;19.40;64.80;;;;;;5044896;28;20101;-55
2023/05/30 05:04:04;;;;;;;9.57;4.20;;;19.40;64.80;;;;;;5044533;28;20060;-55
2023/05/30 05:06:29;;;;;;;9.27;4.05;;;19.40;64.80;;;;;;5043419;28;20021;-55
2023/05/30 05:08:55;;;;;;;15.85;4.00;;;19.40;64.80;;;;;;5042980;28;20116;-55
2023/05/30 05:11:21;;;;;;;9.35;4.28;;;19.40;64.90;;;;;;5044961;28;20032;-54
2023/05/30 05:13:47;;;;;;;10.80;4.13;;;19.40;65.10;;;;;;5044703;28;20033;-55
2023/05/30 05:16:12;;;;;;;6.78;3.78;;;19.30;65.10;;;;;;5026549;28;20103;-55
2023/05/30 05:18:38;;;;;;;7.22;3.58;;;19.30;65.20;;;;;;5042886;28;20044;-55
2023/05/30 05:21:05;;;;;;;9.55;3.70;;;19.30;65.40;;;;;;5044680;28;20030;-55
2023/05/30 05:23:30;;;;;;;7.25;3.70;;;19.30;65.50;;;;;;5043211;28;20053;-55
2023/05/30 05:25:56;;;;;;;8.52;4.20;;;19.30;65.60;;;;;;5044073;28;20072;-55
2023/05/30 05:28:21;;;;;;;9.07;3.78;;;19.20;65.60;;;;;;5043069;28;20030;-55
2023/05/30 05:30:48;;;;;;;8.57;4.05;;;19.30;65.70;;;;;;5044496;28;20020;-55
2023/05/30 05:33:15;;;;;;;8.48;3.55;;;19.30;65.80;;;;;;5044551;28;20037;-55
2023/05/30 05:35:40;;;;;;;7.78;3.50;;;19.20;65.70;;;;;;5044533;28;20045;-54
2023/05/30 05:38:06;;;;;;;7.50;3.55;;;19.20;65.70;;;;;;5042634;28;20025;-55
2023/05/30 05:40:32;;;;;;;7.18;4.20;;;19.30;65.80;;;;;;5045127;28;20032;-55
2023/05/30 05:42:57;;;;;;;5.75;3.35;;;19.30;65.80;;;;;;5047064;28;20025;-55
2023/05/30 05:45:23;;;;;;;7.22;3.92;;;19.30;65.80;;;;;;5044963;28;20028;-55
2023/05/30 05:47:48;;;;;;;8.13;3.78;;;19.20;66.00;;;;;;5043237;28;20026;-55
2023/05/30 05:50:14;;;;;;;6.90;3.83;;;19.30;66.20;;;;;;5044559;28;20033;-55
2023/05/30 05:52:40;;;;;;;13.48;3.80;;;19.30;66.20;;;;;;5043157;28;20025;-55
2023/05/30 05:55:06;;;;;;;7.65;3.72;;;19.30;66.40;;;;;;5042790;28;20056;-55
2023/05/30 05:57:31;;;;;;;9.60;3.97;;;19.30;66.50;;;;;;5045298;28;20034;-55
2023/05/30 05:59:57;;;;;;;8.98;3.50;;;19.20;66.40;;;;;;5047024;28;20099;-55
2023/05/30 06:02:22;;;;;;;6.47;3.50;;;19.20;67.00;;;;;;5048217;28;20104;-55
2023/05/30 06:04:49;;;;;;;6.05;3.63;;;19.20;67.20;;;;;;5046519;28;20040;-55
2023/05/30 06:07:15;;;;;;;7.82;3.30;;;19.20;67.20;;;;;;5047893;28;20049;-55
2023/05/30 06:09:40;;;;;;;4.60;3.28;;;19.20;67.30;;;;;;5030004;28;20036;-55
2023/05/30 06:12:07;;;;;;;7.57;3.22;;;19.20;67.40;;;;;;5046726;28;20021;-55
2023/05/30 06:14:32;;;;;;;9.10;3.58;;;19.20;67.50;;;;;;5047974;28;20117;-55
2023/05/30 06:16:58;;;;;;;6.55;3.47;;;19.20;67.50;;;;;;5047872;28;20045;-55
2023/05/30 06:19:23;;;;;;;5.18;3.42;;;19.20;67.70;;;;;;5046696;28;20040;-55
2023/05/30 06:21:49;;;;;;;9.38;3.60;;;19.20;67.80;;;;;;5046439;28;20445;-55
2023/05/30 06:24:15;;;;;;;8.45;3.50;;;19.10;68.10;;;;;;5047821;28;20048;-55
2023/05/30 06:26:40;;;;;;;7.07;3.88;;;19.10;68.10;;;;;;5047711;28;20026;-55
2023/05/30 06:29:06;;;;;;;5.10;3.25;;;19.10;68.00;;;;;;5046238;28;20490;-56
2023/05/30 06:31:31;;;;;;;6.30;3.45;;;19.10;68.10;;;;;;5047140;28;20025;-55
2023/05/30 06:33:57;;;;;;;11.15;3.88;;;19.10;68.40;;;;;;5045601;28;20045;-55
2023/05/30 06:36:22;;;;;;;10.27;3.22;;;19.10;68.20;;;;;;5046307;28;20047;-55
2023/05/30 06:38:48;;;;;;;12.75;4.63;;;19.10;68.40;;;;;;5046078;28;20060;-55
2023/05/30 06:41:13;;;;;;;10.20;3.95;;;19.10;68.30;;;;;;5046075;28;20026;-55
2023/05/30 06:43:39;;;;;;;6.10;3.42;;;19.10;68.40;;;;;;5047431;28;20048;-55
2023/05/30 06:46:05;;;;;;;8.35;3.35;;;19.10;68.40;;;;;;5045818;28;20073;-54
2023/05/30 06:48:31;;;;;;;5.80;3.45;;;19.10;68.50;;;;;;5045717;28;20113;-55
2023/05/30 06:50:57;;;;;;;6.63;3.45;;;19.10;68.50;;;;;;5045741;28;20025;-55
2023/05/30 06:53:22;;;;;;;10.00;3.58;;;19.10;68.60;;;;;;5045397;28;20041;-55
2023/05/30 06:55:48;;;;;;;8.48;3.45;;;19.10;68.60;;;;;;5045853;28;20021;-55
2023/05/30 06:58:13;;;;;;;11.15;3.70;;;19.10;68.70;;;;;;5045855;28;20045;-55
2023/05/30 07:00:39;;;;;;;9.05;3.55;;;19.10;68.70;;;;;;5045892;28;20026;-55
2023/05/30 07:03:04;;;;;;;7.80;3.78;;;19.20;68.70;;;;;;5045608;28;20393;-54
2023/05/30 07:05:30;;;;;;;9.57;3.97;;;19.10;68.70;;;;;;5045506;28;20025;-55
2023/05/30 07:07:55;;;;;;;10.13;3.80;;;19.10;68.60;;;;;;5046283;28;20037;-55
2023/05/30 07:10:21;;;;;;;14.55;4.05;;;19.20;68.60;;;;;;5046943;28;20025;-56
2023/05/30 07:12:47;;;;;;;10.40;3.70;;;19.20;68.60;;;;;;5045585;28;20025;-55
2023/05/30 07:15:12;;;;;;;24.42;5.40;;;19.20;68.60;;;;;;5046992;28;20037;-55
2023/05/30 07:17:38;;;;;;;8.07;3.45;;;19.20;68.50;;;;;;5046502;28;20386;-55
2023/05/30 07:20:05;;;;;;;13.45;3.75;;;19.20;68.60;;;;;;5045396;28;20041;-56
2023/05/30 07:22:31;;;;;;;9.57;4.00;;;19.20;68.50;;;;;;5047414;28;20026;-56
2023/05/30 07:24:56;;;;;;;18.48;4.32;;;19.20;68.50;;;;;;5045704;28;20029;-55
2023/05/30 07:27:22;;;;;;;14.93;3.72;;;19.20;68.50;;;;;;5047284;28;20022;-55
2023/05/30 07:29:47;;;;;;;13.77;4.32;;;19.20;68.50;;;;;;5045091;28;20154;-56
2023/05/30 07:32:13;;;;;;;11.68;4.10;;;19.20;68.60;;;;;;5045096;28;20021;-55
2023/05/30 07:34:39;;;;;;;16.77;4.65;;;19.20;68.80;;;;;;5045184;28;20093;-55
2023/05/30 07:37:05;;;;;;;14.23;4.57;;;19.20;69.00;;;;;;5045035;28;20108;-55
2023/05/30 07:39:30;;;;;;;16.52;4.45;;;19.20;68.90;;;;;;5046244;28;20033;-55
2023/05/30 07:41:56;;;;;;;14.30;4.57;;;19.20;69.00;;;;;;5046421;28;20022;-55
2023/05/30 07:44:22;;;;;;;28.13;5.43;;;19.20;68.90;;;;;;5044931;28;20041;-55
2023/05/30 07:46:48;;;;;;;22.40;5.05;;;19.20;68.90;;;;;;5044672;28;20026;-55
2023/05/30 07:49:13;;;;;;;18.50;4.90;;;19.20;68.90;;;;;;5044646;28;20163;-55
2023/05/30 07:51:39;;;;;;;14.38;4.43;;;19.20;68.90;;;;;;5031738;28;20121;-55
2023/05/30 07:54:05;;;;;;;30.52;5.93;;;19.20;68.90;;;;;;5030521;28;20044;-55
2023/05/30 07:56:31;;;;;;;13.55;4.53;;;19.20;69.00;;;;;;5023649;28;20021;-55
2023/05/30 07:58:56;;;;;;;17.25;5.38;;;19.20;69.30;;;;;;5032412;28;20030;-60
2023/05/30 08:01:22;;;;;;;42.92;7.65;;;19.20;69.00;;;;;;5056445;28;20036;-60
2023/05/30 08:03:47;;;;;;;29.50;6.47;;;19.20;69.20;;;;;;5044578;28;20177;-59
2023/05/30 08:06:13;;;;;;;16.90;4.63;;;19.20;69.10;;;;;;5044184;28;20053;-60
2023/05/30 08:08:38;;;;;;;18.92;4.22;;;19.20;69.40;;;;;;5045505;28;20025;-59
2023/05/30 08:11:04;;;;;;;8.48;3.78;;;19.20;70.00;;;;;;5043733;28;20021;-60
2023/05/30 08:13:31;;;;;;;11.48;3.88;;;19.20;69.50;;;;;;5029247;28;20030;-60
2023/05/30 08:15:56;;;;;;;12.55;3.80;;;19.20;69.50;;;;;;5025260;28;20053;-59
2023/05/30 08:18:22;;;;;;;9.70;3.65;;;19.20;69.40;;;;;;5015699;28;20088;-60
2023/05/30 08:20:50;;;;;;;35.03;7.10;;;19.20;69.70;;;;;;5025202;28;20682;-59
2023/05/30 08:23:16;;;;;;;14.88;4.60;;;19.20;69.70;;;;;;5047202;28;20042;-59
2023/05/30 08:25:45;;;;;;;12.23;4.20;;;19.30;69.60;;;;;;5043359;28;20026;-59
2023/05/30 08:28:11;;;;;;;8.60;4.20;;;19.30;69.60;;;;;;5039981;28;20026;-60
2023/05/30 08:30:36;;;;;;;10.18;4.10;;;19.30;69.40;;;;;;5044737;28;20476;-59
2023/05/30 08:33:02;;;;;;;10.60;4.45;;;19.40;69.50;;;;;;5042195;28;20021;-59
2023/05/30 08:35:28;;;;;;;9.25;4.50;;;19.40;69.40;;;;;;5009628;28;20026;-59
2023/05/30 08:37:53;;;;;;;14.35;4.75;;;19.40;69.20;;;;;;5022690;28;20422;-59
2023/05/30 08:40:19;;;;;;;11.98;4.22;;;19.40;69.10;;;;;;5039063;28;20026;-59
2023/05/30 08:42:44;;;;;;;18.63;5.60;;;19.40;69.10;;;;;;5041852;28;20049;-60
2023/05/30 08:45:11;;;;;;;13.88;4.90;;;19.50;69.10;;;;;;5041566;28;20068;-60
2023/05/30 08:47:36;;;;;;;11.57;4.10;;;19.50;69.40;;;;;;5042554;28;20033;-59
2023/05/30 08:50:03;;;;;;;16.63;4.28;;;19.50;69.30;;;;;;5042766;28;20040;-60
2023/05/30 08:52:30;;;;;;;13.15;4.18;;;19.50;69.10;;;;;;5043035;28;20060;-59
2023/05/30 08:55:10;;;;;;;14.30;4.43;;;19.60;69.00;;;;;;5031914;28;20038;-60
2023/05/30 08:57:57;;;;;;;23.80;5.43;;;19.60;68.80;;;;;;5053540;28;20044;-60
2023/05/30 09:00:23;;;;;;;16.75;4.25;;;19.60;68.80;;;;;;5043255;28;20037;-59
2023/05/30 09:02:55;;;;;;;10.10;3.95;;;19.70;68.90;;;;;;5043066;28;20389;-60
2023/05/30 09:05:21;;;;;;;8.13;4.03;;;19.70;69.00;;;;;;5043553;28;20049;-60
2023/05/30 09:07:47;;;;;;;11.63;4.57;;;19.70;69.20;;;;;;5040026;28;20045;-60
2023/05/30 09:10:13;;;;;;;13.52;4.30;;;19.70;69.10;;;;;;5028806;28;20037;-59
2023/05/30 09:12:43;;;;;;;10.13;3.95;;;19.70;68.90;;;;;;5016035;28;20060;-59
2023/05/30 09:15:08;;;;;;;12.15;4.18;;;19.80;68.80;;;;;;5043670;28;20030;-59
2023/05/30 09:17:34;;;;;;;7.65;3.88;;;19.80;68.80;;;;;;5036985;28;20113;-60
2023/05/30 09:20:00;;;;;;;10.40;3.80;;;19.80;68.80;;;;;;5051010;28;20098;-60
2023/05/30 09:22:26;;;;;;;30.13;7.32;;;19.80;69.10;;;;;;5032159;28;20034;-60
2023/05/30 09:24:56;;;;;;;33.15;7.90;;;19.80;69.00;;;;;;5025871;28;20529;-60
2023/05/30 09:27:22;;;;;;;40.28;7.93;;;19.90;69.00;;;;;;5049288;28;20021;-60
2023/05/30 09:29:48;;;;;;;11.65;4.60;;;19.90;69.10;;;;;;5028203;28;20940;-60
2023/05/30 09:32:13;;;;;;;12.32;4.40;;;19.90;69.40;;;;;;5048520;28;20034;-60
2023/05/30 09:34:39;;;;;;;15.43;4.57;;;20.00;70.00;;;;;;5039370;28;20076;-60
2023/05/30 09:37:05;;;;;;;18.58;4.80;;;20.00;69.80;;;;;;5036902;28;20514;-60
2023/05/30 09:39:32;;;;;;;13.15;4.60;;;20.00;69.70;;;;;;5049751;28;20454;-59
2023/05/30 09:41:57;;;;;;;16.10;4.05;;;20.10;70.10;;;;;;5030005;28;20026;-60
2023/05/30 09:44:23;;;;;;;11.00;4.40;;;20.10;70.30;;;;;;5036195;28;20052;-59
2023/05/30 09:46:57;;;;;;;15.60;5.47;;;20.20;70.20;;;;;;5028089;28;20055;-59
2023/05/30 09:49:22;;;;;;;16.25;4.55;;;20.20;70.10;;;;;;5046476;28;20080;-59
2023/05/30 09:51:49;;;;;;;10.65;4.25;;;20.20;70.00;;;;;;5049985;28;20036;-59
2023/05/30 09:54:15;;;;;;;15.90;4.85;;;20.30;70.00;;;;;;5052214;28;20034;-60
2023/05/30 09:56:41;;;;;;;16.98;5.03;;;20.40;70.10;;;;;;5043918;28;20037;-60
2023/05/30 09:59:07;;;;;;;17.20;4.70;;;20.40;69.90;;;;;;5044848;28;20090;-60
2023/05/30 10:01:45;;;;;;;10.32;4.78;;;20.40;69.90;;;;;;5043746;28;20044;-60
2023/05/30 10:04:21;;;;;;;26.02;6.32;;;20.50;69.90;;;;;;5040626;28;20037;-59
2023/05/30 10:06:54;;;;;;;30.75;6.15;;;20.50;69.90;;;;;;5047600;28;20121;-60
2023/05/30 10:09:20;;;;;;;29.10;5.95;;;20.60;69.80;;;;;;5046492;28;20060;-57
2023/05/30 10:11:46;;;;;;;24.63;6.13;;;20.60;69.50;;;;;;5042551;28;20038;-58
2023/05/30 10:14:11;;;;;;;26.95;6.55;;;20.70;69.40;;;;;;5044588;28;20041;-57
2023/05/30 10:16:57;;;;;;;29.80;6.80;;;20.80;69.00;;;;;;5055739;28;20101;-57
2023/05/30 10:19:30;;;;;;;33.60;6.30;;;20.80;68.90;;;;;;5029345;28;20084;-57
2023/05/30 10:21:55;;;;;;;29.77;5.82;;;20.80;68.90;;;;;;5028849;28;20153;-58
2023/05/30 10:24:21;;;;;;;26.80;6.57;;;20.90;69.00;;;;;;5041279;28;20044;-58
2023/05/30 10:27:00;;;;;;;39.42;8.07;;;20.90;68.90;;;;;;5034836;28;20129;-57
2023/05/30 10:29:28;;;;;;;31.13;6.03;;;21.00;68.90;;;;;;5021616;28;20038;-58
2023/05/30 10:31:54;;;;;;;30.88;6.70;;;21.00;68.80;;;;;;5052697;28;20026;-58
2023/05/30 10:34:20;;;;;;;26.75;5.90;;;21.10;68.90;;;;;;5031333;28;20048;-57
2023/05/30 10:36:47;;;;;;;29.23;6.57;;;21.20;68.50;;;;;;5017553;28;20096;-60
2023/05/30 10:39:37;;;;;;;37.38;7.35;;;21.20;67.70;;;;;;5035707;28;20025;-58
2023/05/30 10:42:13;;;;;;;33.13;6.70;;;21.30;67.70;;;;;;5028808;28;20061;-58
2023/05/30 10:44:54;;;;;;;58.20;9.48;;;21.40;67.40;;;;;;5017687;28;20033;-58
2023/05/30 10:47:41;;;;;;;39.88;8.90;;;21.50;67.10;;;;;;5044683;28;20413;-58
2023/05/30 10:50:10;;;;;;;33.53;7.22;;;21.50;66.80;;;;;;5031056;28;20044;-58
2023/05/30 10:52:36;;;;;;;32.97;7.75;;;21.60;66.30;;;;;;5037531;28;20105;-58
2023/05/30 10:55:08;;;;;;;45.00;8.65;;;21.70;66.10;;;;;;5029163;28;20084;-58
2023/05/30 10:57:34;;;;;;;29.38;7.18;;;21.80;66.20;;;;;;5054221;28;20026;-58
2023/05/30 11:00:09;;;;;;;44.13;7.55;;;21.90;66.10;;;;;;5043300;28;20484;-58
2023/05/30 11:02:36;;;;;;;60.27;10.00;;;22.00;65.80;;;;;;5035362;28;20076;-58
2023/05/30 11:05:07;;;;;;;46.40;8.43;;;22.10;65.50;;;;;;5044107;28;20106;-58
2023/05/30 11:07:36;;;;;;;63.92;11.82;;;22.10;65.30;;;;;;5058098;28;20095;-58
2023/05/30 11:10:02;;;;;;;80.88;11.02;;;22.20;65.30;;;;;;5049562;28;20057;-58
2023/05/30 11:12:27;;;;;;;41.83;9.02;;;22.20;65.10;;;;;;5033671;28;20034;-58
2023/05/30 11:14:57;;;;;;;30.73;7.47;;;22.30;65.00;;;;;;5031170;28;20044;-58
2023/05/30 11:17:35;;;;;;;39.03;7.70;;;22.40;64.60;;;;;;5034163;28;20537;-58
2023/05/30 11:20:14;;;;;;;46.40;8.82;;;22.50;64.40;;;;;;5035841;28;20454;-58
2023/05/30 11:22:41;;;;;;;59.78;13.77;;;22.60;64.30;;;;;;5048869;28;20125;-58
2023/05/30 11:25:19;;;;;;;34.28;9.98;;;22.70;63.90;;;;;;5046456;28;20084;-58
2023/05/30 11:28:03;;;;;;;59.97;9.60;;;22.80;63.90;;;;;;5037886;28;20113;-58
2023/05/30 11:30:38;;;;;;;44.83;10.18;;;22.90;63.80;;;;;;5032875;28;20056;-58
2023/05/30 11:33:10;;;;;;;84.85;11.88;;;23.00;63.50;;;;;;5039326;28;20038;-58
2023/05/30 11:35:37;;;;;;;72.28;12.05;;;23.00;63.50;;;;;;5024797;28;20061;-58
2023/05/30 11:38:02;;;;;;;60.42;9.00;;;23.10;63.20;;;;;;5039737;28;20052;-58
2023/05/30 11:40:28;;;;;;;40.47;8.35;;;23.20;62.90;;;;;;5034246;28;20037;-58
2023/05/30 11:42:54;;;;;;;29.27;7.22;;;23.20;62.60;;;;;;5042969;28;20120;-58
2023/05/30 11:45:23;;;;;;;26.33;6.38;;;23.30;62.20;;;;;;5037093;28;20526;-58
2023/05/30 11:47:49;;;;;;;22.25;5.88;;;23.40;61.90;;;;;;5035877;28;20053;-58
2023/05/30 11:50:14;;;;;;;20.17;5.32;;;23.40;61.60;;;;;;5037294;28;20045;-58
2023/05/30 11:52:40;;;;;;;16.48;5.65;;;23.40;61.30;;;;;;5021693;28;20026;-58
2023/05/30 11:55:06;;;;;;;12.60;4.00;;;23.50;61.10;;;;;;5027846;28;20359;-58
2023/05/30 11:57:32;;;;;;;12.13;4.70;;;23.60;60.50;;;;;;5049785;28;20025;-58
2023/05/30 11:59:58;;;;;;;28.73;5.45;;;23.60;60.20;;;;;;5030399;28;20032;-58
2023/05/30 12:02:27;;;;;;;18.80;4.97;;;23.70;60.20;;;;;;5053342;28;20064;-58
2023/05/30 12:04:59;;;;;;;10.05;4.10;;;23.70;60.20;;;;;;5033845;28;20033;-58
2023/05/30 12:07:24;;;;;;;10.93;4.32;;;23.80;59.90;;;;;;5034133;28;20041;-58
2023/05/30 12:09:51;;;;;;;10.48;4.15;;;23.80;59.50;;;;;;5030614;28;20038;-58
2023/05/30 12:12:16;;;;;;;21.77;6.47;;;23.90;59.20;;;;;;5066836;28;20029;-58
2023/05/30 12:14:42;;;;;;;20.50;5.32;;;23.90;58.90;;;;;;5048951;28;20088;-58
2023/05/30 12:17:14;;;;;;;24.13;5.50;;;24.00;59.00;;;;;;5039497;28;20089;-58
2023/05/30 12:19:41;;;;;;;31.85;5.68;;;24.10;58.90;;;;;;5035862;28;20078;-58
2023/05/30 12:22:07;;;;;;;27.17;5.93;;;24.10;58.50;;;;;;5031876;28;20087;-56
2023/05/30 12:24:36;;;;;;;20.90;5.90;;;24.10;58.50;;;;;;5044144;28;20093;-58
2023/05/30 12:27:02;;;;;;;12.25;4.43;;;24.20;58.40;;;;;;5041484;28;20131;-58
2023/05/30 12:29:30;;;;;;;8.40;4.70;;;24.30;58.30;;;;;;5026946;28;20176;-58
2023/05/30 12:31:56;;;;;;;40.28;6.22;;;24.30;58.10;;;;;;5047663;28;20033;-58
2023/05/30 12:34:21;;;;;;;33.10;6.65;;;24.40;58.10;;;;;;5044397;28;20091;-58
2023/05/30 12:36:47;;;;;;;18.17;6.30;;;24.40;58.00;;;;;;5043507;28;20025;-58
2023/05/30 12:39:13;;;;;;;13.30;5.60;;;24.50;57.90;;;;;;5042494;28;20097;-58
2023/05/30 12:41:40;;;;;;;48.80;8.23;;;24.60;57.80;;;;;;5022915;28;20403;-58